createdAt,value
2018-12-06T00:01:04.781Z,22.85
2018-12-06T00:03:38.176Z,23.35
2018-12-06T00:06:10.866Z,22.15
2018-12-06T00:08:43.508Z,20.23
2018-12-06T00:11:16.697Z,21.23
2018-12-06T00:13:49.578Z,20.62
2018-12-06T00:16:23.194Z,19.75
2018-12-06T00:19:15.739Z,25.68
2018-12-06T00:21:49.229Z,21.05
2018-12-06T00:24:22.235Z,19.90
2018-12-06T00:26:55.139Z,21.37
2018-12-06T00:29:27.660Z,24.25
2018-12-06T00:32:01.167Z,21.80
2018-12-06T00:34:34.924Z,20.60
2018-12-06T00:37:07.622Z,19.48
2018-12-06T00:39:40.264Z,20.90
2018-12-06T00:42:12.982Z,19.98
2018-12-06T00:44:45.529Z,21.00
2018-12-06T00:47:18.439Z,20.17
2018-12-06T00:49:50.935Z,16.02
2018-12-06T00:52:24.595Z,20.85
2018-12-06T00:54:57.076Z,15.70
2018-12-06T00:57:29.668Z,19.23
2018-12-06T01:00:02.617Z,19.67
2018-12-06T01:02:37.017Z,18.60
2018-12-06T01:05:11.689Z,18.95
2018-12-06T01:07:45.523Z,15.83
2018-12-06T01:10:18.156Z,24.82
2018-12-06T01:12:50.706Z,19.52
2018-12-06T01:15:24.813Z,20.17
2018-12-06T01:17:57.327Z,19.32
2018-12-06T01:20:29.919Z,18.40
2018-12-06T01:23:02.473Z,15.88
2018-12-06T01:25:35.065Z,18.92
2018-12-06T01:28:07.584Z,16.67
2018-12-06T01:30:40.139Z,21.17
2018-12-06T01:33:12.643Z,24.18
2018-12-06T01:35:45.199Z,18.37
2018-12-06T01:38:17.861Z,22.35
2018-12-06T01:40:50.450Z,32.75
2018-12-06T01:43:22.980Z,22.67
2018-12-06T01:45:55.584Z,20.70
2018-12-06T01:48:28.171Z,18.20
2018-12-06T01:51:00.711Z,24.15
2018-12-06T01:53:33.284Z,22.85
2018-12-06T01:56:05.850Z,21.10
2018-12-06T01:58:38.399Z,23.80
2018-12-06T02:01:11.047Z,19.30
2018-12-06T02:03:43.651Z,22.55
2018-12-06T02:06:16.218Z,23.65
2018-12-06T02:08:48.847Z,26.05
2018-12-06T02:11:21.452Z,27.95
2018-12-06T02:13:54.047Z,22.87
2018-12-06T02:16:26.713Z,30.62
2018-12-06T02:18:59.301Z,31.87
2018-12-06T02:21:31.842Z,23.27
2018-12-06T02:24:04.648Z,27.65
2018-12-06T02:26:37.197Z,26.23
2018-12-06T02:29:09.824Z,27.05
2018-12-06T02:31:43.742Z,28.62
2018-12-06T02:34:16.242Z,27.15
2018-12-06T02:36:48.903Z,29.07
2018-12-06T02:39:21.542Z,26.68
2018-12-06T02:41:54.113Z,31.87
2018-12-06T02:44:26.814Z,26.42
2018-12-06T02:46:59.375Z,27.98
2018-12-06T02:49:31.951Z,29.32
2018-12-06T02:52:04.497Z,25.57
2018-12-06T02:54:37.090Z,34.33
2018-12-06T02:57:09.670Z,25.23
2018-12-06T02:59:42.230Z,28.80
2018-12-06T03:02:14.798Z,25.70
2018-12-06T03:04:47.313Z,26.15
2018-12-06T03:07:21.087Z,27.22
2018-12-06T03:09:53.602Z,21.85
2018-12-06T03:12:26.349Z,22.82
2018-12-06T03:14:59.001Z,26.05
2018-12-06T03:17:33.719Z,26.65
2018-12-06T03:20:07.284Z,24.90
2018-12-06T03:22:39.885Z,25.60
2018-12-06T03:25:12.684Z,25.65
2018-12-06T03:27:45.240Z,24.07
2018-12-06T03:30:17.757Z,23.12
2018-12-06T03:32:51.486Z,28.50
2018-12-06T03:35:24.075Z,25.48
2018-12-06T03:37:56.770Z,36.20
2018-12-06T03:40:29.316Z,28.20
2018-12-06T03:43:01.961Z,27.00
2018-12-06T03:45:34.478Z,31.52
2018-12-06T03:48:07.057Z,21.33
2018-12-06T03:50:39.596Z,21.57
2018-12-06T03:53:12.241Z,24.27
2018-12-06T03:55:44.802Z,26.07
2018-12-06T03:58:17.354Z,27.45
2018-12-06T04:00:49.939Z,22.02
2018-12-06T04:03:22.510Z,23.73
2018-12-06T04:05:55.939Z,24.00
2018-12-06T04:08:28.837Z,27.55
2018-12-06T04:11:01.453Z,28.00
2018-12-06T04:13:34.037Z,25.08
2018-12-06T04:16:06.592Z,24.55
2018-12-06T04:18:39.200Z,27.50
2018-12-06T04:21:11.714Z,28.10
2018-12-06T04:23:44.264Z,25.65
2018-12-06T04:26:16.769Z,24.57
2018-12-06T04:28:50.159Z,22.30
2018-12-06T04:31:23.506Z,26.87
2018-12-06T04:33:58.030Z,26.45
2018-12-06T04:36:30.593Z,21.75
2018-12-06T04:39:05.485Z,25.70
2018-12-06T04:41:38.854Z,30.65
2018-12-06T04:44:11.472Z,26.60
2018-12-06T04:46:44.067Z,24.55
2018-12-06T04:49:16.636Z,28.02
2018-12-06T04:51:49.167Z,27.05
2018-12-06T04:54:21.709Z,29.45
2018-12-06T04:56:54.310Z,32.42
2018-12-06T04:59:26.810Z,33.90
2018-12-06T05:01:59.324Z,37.45
2018-12-06T05:04:31.938Z,29.25
2018-12-06T05:07:05.329Z,33.48
2018-12-06T05:09:37.903Z,33.18
2018-12-06T05:12:10.463Z,33.28
2018-12-06T05:14:43.051Z,34.55
2018-12-06T05:17:15.689Z,39.65
2018-12-06T05:19:48.435Z,39.50
2018-12-06T05:22:21.026Z,34.40
2018-12-06T05:24:53.660Z,37.08
2018-12-06T05:27:26.189Z,37.03
2018-12-06T05:29:58.775Z,40.00
2018-12-06T05:32:31.385Z,41.58
2018-12-06T05:35:04.499Z,35.20
2018-12-06T05:37:37.049Z,36.95
2018-12-06T05:40:09.641Z,32.13
2018-12-06T05:42:42.271Z,35.68
2018-12-06T05:45:15.978Z,40.15
2018-12-06T05:47:48.595Z,37.38
2018-12-06T05:50:21.307Z,28.40
2018-12-06T05:52:53.951Z,30.60
2018-12-06T05:55:26.493Z,30.88
2018-12-06T05:57:59.060Z,34.60
2018-12-06T06:00:31.819Z,34.45
2018-12-06T06:03:04.584Z,30.68
2018-12-06T06:05:37.168Z,31.68
2018-12-06T06:08:09.708Z,30.77
2018-12-06T06:13:44.307Z,34.43
2018-12-06T06:16:16.837Z,28.50
2018-12-06T06:18:49.413Z,31.60
2018-12-06T06:21:22.637Z,28.77
2018-12-06T06:23:55.195Z,27.90
2018-12-06T06:26:27.746Z,39.95
2018-12-06T06:29:00.336Z,34.90
2018-12-06T06:31:34.639Z,39.48
2018-12-06T06:34:07.478Z,40.90
2018-12-06T06:36:39.999Z,33.28
2018-12-06T06:39:13.631Z,42.45
2018-12-06T06:41:46.126Z,38.73
2018-12-06T06:44:18.650Z,43.40
2018-12-06T06:46:51.307Z,43.87
2018-12-06T06:49:23.917Z,39.30
2018-12-06T06:51:56.515Z,43.25
2018-12-06T06:54:29.011Z,45.65
2018-12-06T06:57:01.627Z,48.42
2018-12-06T06:59:34.247Z,45.35
2018-12-06T07:02:06.851Z,41.55
2018-12-06T07:04:39.418Z,53.83
2018-12-06T07:07:11.958Z,46.90
2018-12-06T07:09:44.565Z,60.52
2018-12-06T07:12:17.178Z,53.33
2018-12-06T07:14:49.838Z,53.78
2018-12-06T07:17:22.501Z,62.62
2018-12-06T07:19:55.068Z,66.87
2018-12-06T07:22:27.734Z,64.27
2018-12-06T07:25:01.034Z,62.13
2018-12-06T07:27:34.239Z,58.50
2018-12-06T07:30:12.218Z,61.05
2018-12-06T07:32:41.764Z,73.80
2018-12-06T07:35:14.347Z,70.25
2018-12-06T07:37:46.895Z,66.80
2018-12-06T07:40:19.458Z,64.70
2018-12-06T07:42:52.107Z,75.08
2018-12-06T07:45:24.730Z,62.17
2018-12-06T07:47:57.287Z,59.98
2018-12-06T07:50:30.002Z,60.83
2018-12-06T07:53:03.132Z,66.57
2018-12-06T07:55:35.702Z,58.40
2018-12-06T07:58:08.269Z,74.27
2018-12-06T08:00:40.874Z,73.20
2018-12-06T08:03:13.522Z,68.83
2018-12-06T08:05:46.108Z,77.92
2018-12-06T08:08:19.077Z,86.25
2018-12-06T08:10:51.723Z,71.07
2018-12-06T08:13:24.303Z,71.20
2018-12-06T08:15:56.923Z,77.60
2018-12-06T08:18:31.738Z,91.30
2018-12-06T08:21:04.374Z,77.70
2018-12-06T08:23:36.920Z,101.53
2018-12-06T08:26:09.540Z,98.90
2018-12-06T08:28:42.055Z,99.20
2018-12-06T08:31:16.568Z,78.62
2018-12-06T08:33:50.031Z,80.87
2018-12-06T08:36:23.270Z,77.12
2018-12-06T08:38:55.815Z,72.95
2018-12-06T08:41:28.441Z,52.03
2018-12-06T08:44:01.020Z,53.68
2018-12-06T08:46:33.656Z,45.83
2018-12-06T08:49:06.271Z,41.02
2018-12-06T08:51:38.877Z,36.42
2018-12-06T08:54:11.473Z,30.77
2018-12-06T08:56:44.089Z,32.95
2018-12-06T08:59:16.663Z,32.38
2018-12-06T09:01:49.168Z,28.77
2018-12-06T09:04:21.959Z,30.60
2018-12-06T09:06:54.665Z,29.15
2018-12-06T09:09:27.222Z,37.75
2018-12-06T09:11:59.818Z,32.83
2018-12-06T09:14:32.439Z,41.73
2018-12-06T09:17:05.175Z,39.23
2018-12-06T09:19:37.760Z,39.03
2018-12-06T09:22:10.339Z,40.65
2018-12-06T09:24:43.015Z,64.35
2018-12-06T09:27:15.660Z,75.50
2018-12-06T09:29:49.096Z,74.10
2018-12-06T09:32:21.799Z,94.83
2018-12-06T09:34:54.435Z,117.80
2018-12-06T09:37:27.167Z,119.00
2018-12-06T09:40:00.196Z,131.03
2018-12-06T09:42:34.612Z,157.80
2018-12-06T09:45:08.300Z,164.88
2018-12-06T09:47:41.015Z,175.70
2018-12-06T09:50:13.597Z,177.93
2018-12-06T09:52:46.162Z,139.20
2018-12-06T09:55:18.788Z,128.55
2018-12-06T09:57:52.051Z,128.85
2018-12-06T10:00:24.684Z,142.77
2018-12-06T10:02:57.309Z,120.50
2018-12-06T10:05:29.938Z,85.30
2018-12-06T10:08:02.585Z,81.82
2018-12-06T10:10:35.834Z,75.28
2018-12-06T10:13:08.415Z,79.35
2018-12-06T10:15:41.064Z,113.52
2018-12-06T10:18:14.335Z,148.07
2018-12-06T10:20:46.969Z,181.95
2018-12-06T10:23:20.040Z,228.35
2018-12-06T10:25:52.605Z,197.90
2018-12-06T10:28:25.265Z,345.88
2018-12-06T10:30:57.850Z,263.77
2018-12-06T10:33:31.007Z,318.07
2018-12-06T10:36:03.707Z,327.15
2018-12-06T10:38:36.260Z,298.30
2018-12-06T10:41:08.931Z,271.65
2018-12-06T10:43:41.546Z,326.02
2018-12-06T10:46:15.226Z,283.00
2018-12-06T10:48:47.845Z,255.22
2018-12-06T10:51:55.592Z,246.93
2018-12-06T10:54:28.165Z,262.40
2018-12-06T10:57:00.773Z,260.60
2018-12-06T10:59:35.037Z,302.27
2018-12-06T11:02:13.800Z,238.85
2018-12-06T11:04:46.454Z,193.15
2018-12-06T11:07:19.040Z,204.38
2018-12-06T11:09:51.633Z,194.20
2018-12-06T11:12:24.274Z,202.55
2018-12-06T11:14:56.843Z,190.40
2018-12-06T11:17:29.439Z,205.37
2018-12-06T11:20:02.030Z,185.52
2018-12-06T11:22:34.746Z,163.60
2018-12-06T11:25:07.286Z,156.93
2018-12-06T11:27:39.890Z,127.62
2018-12-06T11:30:12.522Z,121.55
2018-12-06T11:32:45.289Z,131.95
2018-12-06T11:35:18.026Z,97.65
2018-12-06T11:37:50.713Z,94.05
2018-12-06T11:40:23.327Z,110.17
2018-12-06T11:42:56.485Z,103.10
2018-12-06T11:45:29.063Z,97.50
2018-12-06T11:48:01.623Z,105.20
2018-12-06T11:50:34.294Z,104.58
2018-12-06T11:53:06.833Z,100.75
2018-12-06T11:55:40.360Z,117.80
2018-12-06T11:58:13.006Z,125.85
2018-12-06T12:00:45.631Z,123.62
2018-12-06T12:03:18.715Z,138.05
2018-12-06T12:05:58.385Z,126.35
2018-12-06T12:08:26.230Z,125.70
2018-12-06T12:10:59.116Z,125.60
2018-12-06T12:13:33.055Z,124.87
2018-12-06T12:16:05.947Z,111.32
2018-12-06T12:18:38.929Z,116.08
2018-12-06T12:21:13.361Z,98.17
2018-12-06T12:23:47.387Z,96.20
2018-12-06T12:26:22.647Z,94.32
2018-12-06T12:28:55.688Z,79.92
2018-12-06T12:31:30.550Z,87.72
2018-12-06T12:34:04.127Z,72.90
2018-12-06T12:36:36.723Z,73.57
2018-12-06T12:39:10.513Z,77.62
2018-12-06T12:41:43.463Z,63.05
2018-12-06T12:44:16.068Z,56.55
2018-12-06T12:46:48.669Z,66.70
2018-12-06T12:49:22.370Z,64.22
2018-12-06T12:51:57.500Z,46.37
2018-12-06T12:54:30.787Z,46.42
2018-12-06T12:57:04.569Z,50.85
2018-12-06T12:59:38.498Z,53.87
2018-12-06T13:02:13.122Z,39.73
2018-12-06T13:04:46.954Z,44.23
2018-12-06T13:07:23.538Z,44.25
2018-12-06T13:10:01.130Z,43.87
2018-12-06T13:12:40.249Z,46.00
2018-12-06T13:15:15.376Z,47.65
2018-12-06T13:17:50.183Z,48.55
2018-12-06T13:20:25.511Z,46.15
2018-12-06T13:22:59.435Z,58.52
2018-12-06T13:25:35.371Z,55.52
2018-12-06T13:28:12.771Z,50.45
2018-12-06T13:30:46.407Z,50.30
2018-12-06T13:33:21.290Z,46.42
2018-12-06T13:35:56.961Z,50.52
2018-12-06T13:38:31.434Z,41.53
2018-12-06T13:41:04.883Z,43.25
2018-12-06T13:43:40.869Z,38.15
2018-12-06T13:46:13.471Z,42.73
2018-12-06T13:48:47.130Z,49.65
2018-12-06T13:51:19.884Z,38.78
2018-12-06T13:53:52.628Z,40.25
2018-12-06T13:56:26.839Z,44.73
2018-12-06T13:59:04.871Z,31.30
2018-12-06T14:01:39.752Z,36.85
2018-12-06T14:04:12.973Z,39.95
2018-12-06T14:06:46.850Z,42.58
2018-12-06T14:09:21.285Z,44.48
2018-12-06T14:11:59.341Z,37.70
2018-12-06T14:14:33.916Z,42.00
2018-12-06T14:17:06.550Z,42.65
2018-12-06T14:19:40.115Z,35.65
2018-12-06T14:22:12.656Z,37.73
2018-12-06T14:24:48.786Z,32.88
2018-12-06T14:27:21.977Z,29.37
2018-12-06T14:29:54.802Z,28.62
2018-12-06T14:32:27.407Z,34.18
2018-12-06T14:35:00.339Z,34.27
2018-12-06T14:37:33.940Z,31.65
2018-12-06T14:40:07.548Z,30.23
2018-12-06T14:42:41.343Z,34.33
2018-12-06T14:45:14.562Z,30.37
2018-12-06T14:47:48.341Z,32.67
2018-12-06T14:50:22.018Z,31.17
2018-12-06T14:53:01.735Z,33.88
2018-12-06T14:55:36.684Z,32.05
2018-12-06T14:58:10.776Z,34.88
2018-12-06T15:00:45.354Z,46.20
2018-12-06T15:03:19.071Z,38.13
2018-12-06T15:05:51.941Z,35.52
2018-12-06T15:08:25.812Z,42.03
2018-12-06T15:11:03.656Z,43.50
2018-12-06T15:13:38.519Z,41.50
2018-12-06T15:16:12.832Z,52.00
2018-12-06T15:18:45.502Z,43.68
2018-12-06T15:21:19.037Z,48.40
2018-12-06T15:23:54.372Z,52.73
2018-12-06T15:26:26.963Z,47.33
2018-12-06T15:28:59.563Z,53.75
2018-12-06T15:31:32.789Z,53.20
2018-12-06T15:34:06.129Z,61.77
2018-12-06T15:36:38.750Z,52.48
2018-12-06T15:39:11.380Z,49.53
2018-12-06T15:41:44.997Z,49.83
2018-12-06T15:44:18.089Z,47.23
2018-12-06T15:46:50.759Z,47.35
2018-12-06T15:49:23.563Z,41.40
2018-12-06T15:51:57.181Z,36.88
2018-12-06T15:56:02.300Z,40.80
2018-12-06T15:58:35.896Z,38.45
2018-12-06T16:01:09.928Z,45.75
2018-12-06T16:03:44.175Z,42.70
2018-12-06T16:06:17.148Z,36.77
2018-12-06T16:08:50.596Z,39.83
2018-12-06T16:11:24.116Z,42.25
2018-12-06T16:13:56.776Z,43.25
2018-12-06T16:16:29.483Z,42.98
2018-12-06T16:19:02.836Z,45.28
2018-12-06T16:21:36.448Z,40.03
2018-12-06T16:24:09.032Z,47.23
2018-12-06T16:26:42.701Z,42.53
2018-12-06T16:29:18.294Z,39.00
2018-12-06T16:31:51.782Z,39.58
2018-12-06T16:34:24.415Z,42.25
2018-12-06T16:36:57.101Z,43.05
2018-12-06T16:39:31.653Z,35.63
2018-12-06T16:42:05.222Z,38.92
2018-12-06T16:44:37.899Z,37.08
2018-12-06T16:47:11.373Z,40.43
2018-12-06T16:49:45.090Z,36.48
2018-12-06T16:52:17.929Z,40.20
2018-12-06T16:54:56.320Z,49.70
2018-12-06T16:57:29.210Z,43.75
2018-12-06T17:00:01.884Z,47.25
2018-12-06T17:02:36.113Z,43.10
2018-12-06T17:05:12.115Z,45.63
2018-12-06T17:07:45.957Z,48.10
2018-12-06T17:10:18.931Z,42.08
2018-12-06T17:12:51.752Z,50.55
2018-12-06T17:15:24.826Z,47.10
2018-12-06T17:17:57.433Z,45.67
2018-12-06T17:20:30.674Z,47.98
2018-12-06T17:23:06.282Z,42.73
2018-12-06T17:25:38.908Z,47.60
2018-12-06T17:28:14.504Z,41.30
2018-12-06T17:30:50.279Z,39.75
2018-12-06T17:33:25.211Z,38.35
2018-12-06T17:35:58.084Z,41.65
2018-12-06T17:38:38.387Z,34.73
2018-12-06T17:41:11.920Z,38.78
2018-12-06T17:43:44.930Z,36.15
2018-12-06T17:46:18.394Z,49.05
2018-12-06T17:48:51.134Z,40.85
2018-12-06T17:51:24.805Z,39.15
2018-12-06T17:53:57.950Z,39.65
2018-12-06T17:56:30.720Z,37.70
2018-12-06T17:59:04.188Z,43.00
2018-12-06T18:01:36.987Z,33.60
2018-12-06T18:04:11.507Z,38.10
2018-12-06T18:06:46.297Z,35.70
2018-12-06T18:09:23.396Z,38.08
2018-12-06T18:11:58.091Z,32.95
2018-12-06T18:14:32.337Z,37.00
2018-12-06T18:17:05.547Z,31.85
2018-12-06T18:19:40.057Z,30.17
2018-12-06T18:22:12.733Z,39.63
2018-12-06T18:24:47.471Z,39.03
2018-12-06T18:27:20.064Z,28.55
2018-12-06T18:32:01.932Z,30.97
2018-12-06T18:34:37.350Z,36.68
2018-12-06T18:37:14.728Z,30.27
2018-12-06T18:39:47.380Z,38.17
2018-12-06T18:42:20.673Z,40.67
2018-12-06T18:44:53.623Z,34.58
2018-12-06T18:47:27.700Z,35.05
2018-12-06T18:50:04.462Z,40.08
2018-12-06T18:52:38.006Z,30.68
2018-12-06T18:55:12.073Z,37.00
2018-12-06T18:57:46.499Z,34.98
2018-12-06T19:00:21.250Z,37.55
2018-12-06T19:02:57.660Z,36.13
2018-12-06T19:05:30.662Z,41.18
2018-12-06T19:08:04.295Z,39.88
2018-12-06T19:10:39.116Z,39.83
2018-12-06T19:13:13.693Z,39.40
2018-12-06T19:15:48.172Z,34.05
2018-12-06T19:18:25.164Z,40.00
2018-12-06T19:21:00.959Z,40.20
2018-12-06T19:23:35.733Z,41.55
2018-12-06T19:26:11.980Z,41.70
2018-12-06T19:31:36.079Z,40.83
2018-12-06T19:34:09.133Z,38.78
2018-12-06T19:36:43.766Z,37.28
2018-12-06T19:39:21.884Z,37.75
2018-12-06T19:41:57.039Z,38.65
2018-12-06T19:44:32.692Z,40.43
2018-12-06T19:47:07.195Z,38.45
2018-12-06T19:49:41.356Z,38.75
2018-12-06T19:52:16.075Z,39.80
2018-12-06T19:54:48.787Z,43.28
2018-12-06T19:57:22.296Z,42.95
2018-12-06T19:59:57.518Z,49.33
2018-12-06T20:02:31.542Z,42.98
2018-12-06T20:05:06.397Z,47.33
2018-12-06T20:07:39.528Z,53.65
2018-12-06T20:10:12.902Z,54.73
2018-12-06T20:12:46.213Z,55.58
2018-12-06T20:15:19.288Z,50.70
2018-12-06T20:17:52.597Z,56.02
2018-12-06T20:20:26.279Z,53.60
2018-12-06T20:22:59.168Z,48.33
2018-12-06T20:25:33.866Z,49.40
2018-12-06T20:28:07.712Z,51.70
2018-12-06T20:30:43.216Z,56.28
2018-12-06T20:33:15.919Z,46.83
2018-12-06T20:35:48.703Z,50.28
2018-12-06T20:38:21.672Z,52.23
2018-12-06T20:40:55.177Z,51.77
2018-12-06T20:43:32.347Z,47.75
2018-12-06T20:46:06.303Z,51.73
2018-12-06T20:48:39.435Z,52.35
2018-12-06T20:51:13.210Z,41.70
2018-12-06T20:53:45.899Z,42.17
2018-12-06T20:56:19.879Z,44.67
2018-12-06T20:58:56.511Z,43.25
2018-12-06T21:01:29.142Z,43.10
2018-12-06T21:04:05.118Z,38.17
2018-12-06T21:06:37.832Z,46.10
2018-12-06T21:09:11.416Z,45.05
2018-12-06T21:11:44.152Z,41.00
2018-12-06T21:14:22.079Z,42.75
2018-12-06T21:16:52.924Z,42.98
2018-12-06T21:19:25.901Z,43.52
2018-12-06T21:22:00.878Z,50.73
2018-12-06T21:24:35.320Z,47.30
2018-12-06T21:27:08.708Z,43.58
2018-12-06T21:29:44.159Z,44.63
2018-12-06T21:32:21.198Z,46.42
2018-12-06T21:34:57.368Z,46.40
2018-12-06T21:37:35.818Z,50.30
2018-12-06T21:40:11.149Z,47.27
2018-12-06T21:42:47.249Z,48.63
2018-12-06T21:45:23.815Z,59.20
2018-12-06T21:48:01.251Z,48.05
2018-12-06T21:50:35.861Z,48.68
2018-12-06T21:53:12.163Z,54.58
2018-12-06T21:55:46.302Z,51.02
2018-12-06T21:58:22.341Z,49.13
2018-12-06T22:00:59.127Z,51.42
2018-12-06T22:03:34.708Z,53.10
2018-12-06T22:06:08.470Z,55.00
2018-12-06T22:08:41.525Z,50.38
2018-12-06T22:11:17.267Z,58.25
2018-12-06T22:13:53.903Z,57.10
2018-12-06T22:16:31.683Z,59.18
2018-12-06T22:19:07.318Z,59.83
2018-12-06T22:21:42.510Z,55.40
2018-12-06T22:24:16.895Z,53.45
2018-12-06T22:26:53.267Z,53.55
2018-12-06T22:29:28.968Z,53.80
2018-12-06T22:32:05.554Z,47.85
2018-12-06T22:34:39.827Z,46.68
2018-12-06T22:37:15.785Z,44.88
2018-12-06T22:39:56.631Z,46.53
2018-12-06T22:42:31.592Z,39.13
2018-12-06T22:47:34.971Z,47.78
2018-12-06T22:50:13.946Z,41.88
2018-12-06T22:52:47.332Z,34.75
2018-12-06T22:55:23.156Z,42.13
2018-12-06T22:57:58.142Z,41.77
2018-12-06T23:00:32.018Z,41.75
2018-12-06T23:03:07.398Z,45.50
2018-12-06T23:05:40.027Z,52.60
2018-12-06T23:08:12.717Z,54.05
2018-12-06T23:10:45.699Z,48.52
2018-12-06T23:13:18.372Z,56.77
2018-12-06T23:15:52.227Z,55.85
2018-12-06T23:18:24.834Z,51.02
2018-12-06T23:20:57.435Z,52.78
2018-12-06T23:23:30.161Z,59.73
2018-12-06T23:26:03.473Z,48.58
2018-12-06T23:28:36.384Z,46.20
2018-12-06T23:31:09.385Z,50.40
2018-12-06T23:33:41.969Z,50.35
2018-12-06T23:36:16.820Z,56.10
2018-12-06T23:38:49.430Z,44.42
2018-12-06T23:41:22.676Z,40.90
2018-12-06T23:43:55.272Z,53.30
2018-12-06T23:46:27.972Z,50.10
2018-12-06T23:49:00.595Z,50.33
2018-12-06T23:51:37.004Z,52.23
2018-12-06T23:54:09.546Z,53.10
2018-12-06T23:56:44.597Z,50.25
2018-12-06T23:59:19.943Z,51.28
